createdAt,value
2019-05-18T00:02:57.835Z,21.47
2019-05-18T00:06:02.113Z,23.43
2019-05-18T00:09:07.406Z,21.33
2019-05-18T00:12:13.512Z,24.57
2019-05-18T00:15:19.996Z,24.87
2019-05-18T00:18:24.294Z,22.97
2019-05-18T00:21:28.704Z,23.50
2019-05-18T00:24:33.088Z,24.17
2019-05-18T00:27:37.406Z,21.97
2019-05-18T00:30:41.724Z,23.13
2019-05-18T00:33:46.048Z,23.27
2019-05-18T00:36:51.835Z,21.43
2019-05-18T00:39:56.159Z,23.50
2019-05-18T00:43:00.497Z,23.53
2019-05-18T00:46:05.377Z,23.80
2019-05-18T00:49:09.820Z,24.00
2019-05-18T00:52:14.157Z,21.50
2019-05-18T00:55:18.532Z,21.23
2019-05-18T00:58:22.882Z,21.67
2019-05-18T01:01:30.151Z,22.40
2019-05-18T01:04:34.536Z,22.30
2019-05-18T01:07:40.080Z,22.60
2019-05-18T01:10:45.028Z,22.73
2019-05-18T01:13:49.284Z,22.63
2019-05-18T01:16:53.587Z,22.60
2019-05-18T01:19:57.903Z,22.53
2019-05-18T01:23:02.205Z,22.87
2019-05-18T01:26:09.321Z,22.53
2019-05-18T01:29:13.648Z,22.93
2019-05-18T01:32:17.933Z,24.30
2019-05-18T01:35:22.581Z,22.57
2019-05-18T01:38:27.005Z,21.90
2019-05-18T01:41:31.300Z,23.17
2019-05-18T01:44:37.683Z,24.23
2019-05-18T01:47:42.001Z,24.40
2019-05-18T01:50:46.318Z,26.17
2019-05-18T01:53:50.612Z,26.60
2019-05-18T01:56:55.041Z,26.17
2019-05-18T01:59:59.354Z,26.17
2019-05-18T02:03:03.645Z,25.33
2019-05-18T02:06:07.941Z,25.53
2019-05-18T02:09:12.227Z,25.37
2019-05-18T02:12:16.547Z,25.80
2019-05-18T02:15:20.845Z,24.70
2019-05-18T02:18:29.198Z,26.83
2019-05-18T02:21:32.332Z,23.43
2019-05-18T02:24:36.628Z,27.10
2019-05-18T02:27:41.014Z,26.23
2019-05-18T02:30:45.404Z,26.53
2019-05-18T02:33:49.693Z,26.90
2019-05-18T02:36:54.003Z,26.53
2019-05-18T02:39:58.410Z,26.63
2019-05-18T02:43:02.701Z,27.17
2019-05-18T02:46:06.999Z,26.20
2019-05-18T02:49:13.529Z,27.90
2019-05-18T02:52:17.811Z,26.80
2019-05-18T02:55:22.133Z,26.23
2019-05-18T02:58:26.431Z,26.00
2019-05-18T03:01:30.713Z,24.90
2019-05-18T03:04:36.770Z,26.73
2019-05-18T03:07:41.047Z,26.97
2019-05-18T03:10:45.773Z,25.23
2019-05-18T03:13:50.105Z,26.07
2019-05-18T03:16:54.567Z,25.83
2019-05-18T03:19:58.907Z,25.80
2019-05-18T03:23:03.244Z,26.47
2019-05-18T03:26:07.563Z,26.97
2019-05-18T03:29:11.861Z,26.93
2019-05-18T03:32:16.194Z,26.63
2019-05-18T03:35:20.507Z,27.83
2019-05-18T03:38:25.986Z,28.37
2019-05-18T03:41:31.448Z,28.27
2019-05-18T03:44:35.749Z,25.80
2019-05-18T03:47:40.084Z,23.70
2019-05-18T03:50:44.560Z,27.27
2019-05-18T03:53:48.853Z,27.70
2019-05-18T03:56:55.200Z,27.97
2019-05-18T03:59:59.508Z,26.17
2019-05-18T04:03:03.812Z,26.40
2019-05-18T04:06:08.106Z,26.20
2019-05-18T04:09:12.404Z,26.80
2019-05-18T04:12:16.730Z,25.17
2019-05-18T04:15:21.068Z,27.50
2019-05-18T04:18:25.451Z,24.67
2019-05-18T04:21:29.750Z,26.67
2019-05-18T04:24:34.130Z,23.67
2019-05-18T04:27:38.421Z,26.83
2019-05-18T04:30:42.695Z,27.30
2019-05-18T04:33:47.027Z,25.30
2019-05-18T04:36:51.340Z,25.40
2019-05-18T04:39:55.642Z,25.53
2019-05-18T04:42:59.928Z,24.87
2019-05-18T04:46:04.242Z,26.00
2019-05-18T04:49:08.536Z,22.17
2019-05-18T04:52:12.840Z,21.30
2019-05-18T04:55:17.153Z,20.03
2019-05-18T04:58:21.456Z,21.70
2019-05-18T05:01:26.085Z,20.53
2019-05-18T05:04:30.494Z,19.93
2019-05-18T05:07:34.784Z,19.87
2019-05-18T05:10:40.021Z,19.10
2019-05-18T05:13:44.373Z,20.17
2019-05-18T05:16:48.671Z,17.23
2019-05-18T05:19:52.987Z,18.20
2019-05-18T05:22:57.298Z,19.53
2019-05-18T05:26:01.627Z,17.13
2019-05-18T05:29:05.886Z,18.13
2019-05-18T05:32:10.211Z,17.77
2019-05-18T05:35:14.516Z,16.47
2019-05-18T05:38:18.796Z,17.03
2019-05-18T05:41:23.979Z,15.97
2019-05-18T05:44:28.276Z,16.40
2019-05-18T05:47:32.563Z,17.57
2019-05-18T05:50:36.974Z,16.83
2019-05-18T05:53:41.285Z,17.70
2019-05-18T05:56:45.581Z,17.83
2019-05-18T05:59:49.893Z,19.80
2019-05-18T06:02:54.197Z,18.70
2019-05-18T06:05:58.591Z,20.00
2019-05-18T06:09:02.956Z,19.37
2019-05-18T06:12:07.295Z,21.27
2019-05-18T06:15:12.098Z,21.67
2019-05-18T06:18:16.422Z,19.87
2019-05-18T06:21:20.708Z,21.77
2019-05-18T06:24:25.053Z,21.37
2019-05-18T06:27:29.348Z,20.87
2019-05-18T06:30:33.634Z,20.93
2019-05-18T06:33:37.956Z,18.33
2019-05-18T06:36:42.258Z,17.57
2019-05-18T06:39:46.569Z,15.27
2019-05-18T06:42:50.851Z,18.83
2019-05-18T06:45:55.250Z,18.53
2019-05-18T06:48:59.572Z,19.27
2019-05-18T06:52:03.904Z,19.00
2019-05-18T06:55:08.187Z,19.70
2019-05-18T06:58:12.600Z,17.87
2019-05-18T07:01:16.901Z,18.57
2019-05-18T07:04:21.304Z,18.07
2019-05-18T07:07:25.593Z,16.97
2019-05-18T07:10:29.931Z,19.37
2019-05-18T07:13:34.267Z,18.77
2019-05-18T07:16:38.533Z,20.40
2019-05-18T07:19:42.844Z,18.87
2019-05-18T07:22:47.282Z,19.27
2019-05-18T07:25:51.575Z,18.50
2019-05-18T07:28:55.997Z,19.20
2019-05-18T07:32:00.351Z,18.80
2019-05-18T07:35:05.386Z,18.27
2019-05-18T07:38:09.709Z,18.17
2019-05-18T07:41:14.038Z,21.03
2019-05-18T07:44:18.357Z,19.83
2019-05-18T07:47:22.651Z,19.70
2019-05-18T07:50:26.970Z,19.80
2019-05-18T07:53:31.296Z,18.83
2019-05-18T07:56:35.587Z,19.90
2019-05-18T07:59:39.903Z,19.80
2019-05-18T08:02:46.365Z,21.07
2019-05-18T08:05:50.658Z,21.50
2019-05-18T08:08:55.066Z,20.70
2019-05-18T08:12:02.682Z,20.90
2019-05-18T08:15:10.557Z,20.43
2019-05-18T08:18:15.851Z,21.83
2019-05-18T08:21:20.237Z,22.10
2019-05-18T08:24:24.575Z,23.60
2019-05-18T08:27:31.603Z,22.87
2019-05-18T08:30:37.451Z,22.13
2019-05-18T08:33:41.773Z,21.60
2019-05-18T08:36:46.102Z,21.87
2019-05-18T08:39:50.406Z,21.60
2019-05-18T08:42:54.681Z,22.67
2019-05-18T08:45:58.999Z,23.30
2019-05-18T08:49:03.304Z,24.43
2019-05-18T08:52:08.792Z,22.87
2019-05-18T08:55:15.894Z,21.83
2019-05-18T08:58:22.614Z,20.47
2019-05-18T09:01:26.890Z,22.50
2019-05-18T09:04:31.280Z,21.20
2019-05-18T09:07:35.722Z,21.57
2019-05-18T09:10:40.030Z,21.80
2019-05-18T09:13:44.354Z,22.97
2019-05-18T09:16:48.654Z,21.50
2019-05-18T09:19:52.951Z,22.00
2019-05-18T09:22:57.230Z,23.00
2019-05-18T09:26:01.533Z,22.47
2019-05-18T09:29:05.825Z,22.83
2019-05-18T09:32:10.124Z,22.70
2019-05-18T09:35:14.633Z,25.17
2019-05-18T09:38:19.912Z,25.00
2019-05-18T09:41:24.209Z,24.77
2019-05-18T09:44:28.512Z,24.83
2019-05-18T09:47:35.569Z,24.93
2019-05-18T09:50:40.008Z,22.20
2019-05-18T09:53:51.513Z,22.23
2019-05-18T09:56:51.789Z,23.83
2019-05-18T09:59:56.143Z,22.53
2019-05-18T10:03:00.441Z,21.80
2019-05-18T10:06:04.741Z,22.13
2019-05-18T10:09:09.903Z,23.33
2019-05-18T10:12:14.211Z,24.93
2019-05-18T10:15:20.140Z,22.03
2019-05-18T10:18:24.436Z,23.43
2019-05-18T10:21:28.816Z,23.60
2019-05-18T10:24:33.227Z,24.57
2019-05-18T10:27:37.514Z,23.43
2019-05-18T10:30:41.796Z,22.47
2019-05-18T10:33:46.077Z,24.23
2019-05-18T10:36:50.377Z,23.00
2019-05-18T10:39:54.796Z,22.43
2019-05-18T10:42:59.098Z,22.73
2019-05-18T10:46:03.387Z,22.50
2019-05-18T10:49:07.684Z,22.33
2019-05-18T10:52:12.009Z,22.00
2019-05-18T10:55:18.327Z,24.17
2019-05-18T10:58:22.598Z,23.10
2019-05-18T11:01:26.922Z,23.70
2019-05-18T11:04:31.285Z,22.77
2019-05-18T11:07:35.615Z,21.87
2019-05-18T11:10:39.959Z,19.87
2019-05-18T11:13:44.256Z,20.47
2019-05-18T11:16:48.567Z,21.03
2019-05-18T11:19:52.846Z,19.97
2019-05-18T11:22:57.186Z,19.03
2019-05-18T11:26:01.461Z,19.57
2019-05-18T11:29:08.467Z,19.50
2019-05-18T11:32:12.841Z,19.03
2019-05-18T11:35:17.826Z,19.57
2019-05-18T11:38:24.910Z,20.33
2019-05-18T11:41:30.687Z,19.20
2019-05-18T11:44:35.012Z,20.50
2019-05-18T11:47:39.303Z,20.70
2019-05-18T11:50:43.594Z,21.20
2019-05-18T11:53:57.803Z,21.27
2019-05-18T11:56:55.725Z,21.53
2019-05-18T12:00:02.868Z,21.67
2019-05-18T12:03:07.167Z,20.97
2019-05-18T12:06:11.481Z,21.30
2019-05-18T12:09:17.673Z,23.77
2019-05-18T12:12:21.975Z,23.00
2019-05-18T12:15:33.051Z,23.63
2019-05-18T12:18:37.494Z,23.70
2019-05-18T12:21:41.789Z,23.27
2019-05-18T12:24:46.075Z,23.97
2019-05-18T12:27:50.424Z,24.90
2019-05-18T12:30:54.736Z,24.03
2019-05-18T12:33:59.041Z,24.33
2019-05-18T12:37:03.327Z,24.63
2019-05-18T12:40:08.840Z,25.17
2019-05-18T12:43:13.358Z,26.00
2019-05-18T12:46:17.659Z,24.97
2019-05-18T12:49:21.971Z,24.27
2019-05-18T12:52:28.087Z,24.90
2019-05-18T12:55:34.223Z,24.33
2019-05-18T12:58:38.467Z,24.93
2019-05-18T13:01:42.768Z,26.23
2019-05-18T13:04:47.091Z,24.87
2019-05-18T13:07:51.474Z,24.37
2019-05-18T13:10:56.565Z,24.90
2019-05-18T13:14:00.878Z,24.20
2019-05-18T13:17:05.189Z,23.20
2019-05-18T13:20:10.289Z,24.17
2019-05-18T13:23:14.619Z,23.60
2019-05-18T13:26:18.913Z,24.87
2019-05-18T13:29:23.215Z,23.80
2019-05-18T13:32:27.512Z,24.03
2019-05-18T13:35:31.805Z,23.70
2019-05-18T13:38:36.212Z,24.30
2019-05-18T13:41:40.554Z,23.83
2019-05-18T13:44:46.788Z,23.57
2019-05-18T13:47:52.906Z,22.70
2019-05-18T13:50:57.207Z,23.07
2019-05-18T13:54:02.590Z,22.87
2019-05-18T13:57:06.893Z,22.10
2019-05-18T14:00:12.499Z,20.93
2019-05-18T14:03:16.896Z,23.17
2019-05-18T14:06:21.188Z,21.57
2019-05-18T14:09:25.508Z,24.90
2019-05-18T14:12:29.870Z,23.50
2019-05-18T14:15:34.264Z,23.30
2019-05-18T14:18:38.566Z,23.40
2019-05-18T14:21:42.863Z,22.07
2019-05-18T14:24:48.954Z,24.13
2019-05-18T14:27:53.265Z,23.10
2019-05-18T14:30:57.653Z,24.23
2019-05-18T14:34:02.056Z,24.57
2019-05-18T14:37:07.315Z,23.03
2019-05-18T14:40:11.832Z,24.13
2019-05-18T14:43:16.165Z,22.90
2019-05-18T14:46:20.471Z,22.33
2019-05-18T14:49:24.896Z,23.43
2019-05-18T14:52:29.231Z,23.60
2019-05-18T14:55:34.712Z,23.13
2019-05-18T14:58:39.577Z,23.70
2019-05-18T15:01:44.066Z,23.83
2019-05-18T15:04:48.375Z,23.73
2019-05-18T15:07:52.824Z,22.40
2019-05-18T15:10:57.139Z,23.73
2019-05-18T15:14:01.553Z,23.80
2019-05-18T15:17:05.840Z,21.90
2019-05-18T15:20:10.857Z,22.00
2019-05-18T15:23:15.170Z,22.17
2019-05-18T15:26:20.348Z,21.93
2019-05-18T15:29:25.669Z,23.33
2019-05-18T15:32:33.119Z,21.20
2019-05-18T15:35:39.440Z,21.23
2019-05-18T15:38:44.425Z,21.07
2019-05-18T15:41:49.551Z,21.37
2019-05-18T15:44:53.890Z,21.73
2019-05-18T15:47:59.684Z,21.13
2019-05-18T15:51:04.098Z,21.97
2019-05-18T15:54:08.445Z,20.63
2019-05-18T15:57:12.760Z,21.03
2019-05-18T16:00:17.883Z,21.17
2019-05-18T16:03:22.224Z,20.30
2019-05-18T16:06:26.547Z,22.13
2019-05-18T16:09:30.870Z,20.27
2019-05-18T16:12:35.282Z,21.13
2019-05-18T16:15:39.585Z,22.07
2019-05-18T16:18:43.931Z,21.07
2019-05-18T16:21:49.995Z,22.10
2019-05-18T16:24:54.535Z,21.53
2019-05-18T16:27:58.837Z,21.90
2019-05-18T16:31:03.166Z,22.03
2019-05-18T16:34:07.462Z,22.07
2019-05-18T16:37:11.781Z,24.27
2019-05-18T16:40:16.272Z,22.00
2019-05-18T16:43:20.678Z,23.10
2019-05-18T16:46:25.018Z,22.20
2019-05-18T16:49:29.371Z,24.17
2019-05-18T16:52:33.755Z,22.70
2019-05-18T16:55:38.356Z,24.27
2019-05-18T16:58:42.647Z,24.10
2019-05-18T17:01:46.939Z,24.47
2019-05-18T17:04:51.329Z,25.33
2019-05-18T17:07:55.824Z,24.40
2019-05-18T17:11:00.207Z,25.23
2019-05-18T17:14:04.579Z,26.50
2019-05-18T17:17:08.896Z,26.70
2019-05-18T17:20:14.911Z,26.90
2019-05-18T17:23:20.563Z,26.20
2019-05-18T17:26:25.030Z,25.53
2019-05-18T17:29:29.349Z,26.37
2019-05-18T17:32:33.956Z,24.43
2019-05-18T17:35:38.675Z,24.03
2019-05-18T17:38:44.096Z,24.60
2019-05-18T17:41:49.433Z,24.93
2019-05-18T17:44:53.720Z,24.53
2019-05-18T17:47:58.657Z,24.40
2019-05-18T17:51:02.982Z,23.90
2019-05-18T17:54:07.674Z,24.43
2019-05-18T17:57:11.964Z,24.03
2019-05-18T18:00:16.475Z,24.03
2019-05-18T18:03:20.956Z,24.53
2019-05-18T18:06:25.301Z,24.30
2019-05-18T18:09:31.064Z,24.33
2019-05-18T18:12:35.422Z,23.97
2019-05-18T18:15:40.053Z,22.60
2019-05-18T18:18:44.798Z,23.33
2019-05-18T18:21:49.319Z,23.80
2019-05-18T18:24:53.640Z,24.17
2019-05-18T18:27:57.995Z,24.30
2019-05-18T18:31:02.345Z,23.83
2019-05-18T18:34:07.661Z,23.97
2019-05-18T18:37:11.968Z,24.80
2019-05-18T18:40:16.598Z,25.60
2019-05-18T18:43:20.868Z,26.60
2019-05-18T18:46:25.202Z,26.13
2019-05-18T18:49:29.570Z,27.67
2019-05-18T18:52:34.093Z,28.37
2019-05-18T18:55:38.469Z,30.00
2019-05-18T18:58:42.757Z,29.67
2019-05-18T19:01:47.056Z,28.57
2019-05-18T19:04:51.467Z,30.43
2019-05-18T19:07:55.931Z,28.27
2019-05-18T19:11:00.398Z,27.50
2019-05-18T19:14:05.102Z,28.23
2019-05-18T19:17:09.411Z,28.77
2019-05-18T19:20:13.847Z,29.30
2019-05-18T19:23:18.248Z,27.73
2019-05-18T19:26:23.589Z,28.40
2019-05-18T19:29:28.264Z,28.87
2019-05-18T19:32:33.354Z,28.20
2019-05-18T19:35:38.086Z,28.63
2019-05-18T19:38:42.509Z,27.30
2019-05-18T19:41:48.360Z,27.23
2019-05-18T19:44:52.841Z,27.37
2019-05-18T19:47:57.149Z,26.77
2019-05-18T19:51:01.957Z,27.00
2019-05-18T19:54:06.381Z,29.13
2019-05-18T19:57:10.821Z,26.27
2019-05-18T20:00:16.239Z,27.30
2019-05-18T20:03:20.801Z,27.13
2019-05-18T20:06:25.510Z,27.13
2019-05-18T20:09:30.449Z,28.27
2019-05-18T20:12:34.947Z,28.90
2019-05-18T20:15:39.268Z,27.63
2019-05-18T20:18:43.864Z,28.03
2019-05-18T20:21:48.497Z,27.87
2019-05-18T20:24:52.826Z,28.83
2019-05-18T20:27:57.400Z,28.73
2019-05-18T20:31:01.947Z,29.07
2019-05-18T20:34:06.974Z,31.27
2019-05-18T20:37:12.799Z,31.13
2019-05-18T20:40:17.295Z,30.67
2019-05-18T20:43:22.103Z,31.30
2019-05-18T20:46:27.787Z,31.80
2019-05-18T20:49:32.169Z,30.97
2019-05-18T20:52:36.954Z,32.63
2019-05-18T20:55:41.584Z,33.57
2019-05-18T20:58:46.184Z,32.93
2019-05-18T21:01:52.319Z,31.57
2019-05-18T21:04:58.122Z,33.57
2019-05-18T21:08:02.882Z,33.33
2019-05-18T21:11:10.276Z,32.10
2019-05-18T21:14:15.245Z,32.63
2019-05-18T21:17:20.363Z,31.53
2019-05-18T21:20:24.716Z,31.97
2019-05-18T21:23:29.752Z,30.70
2019-05-18T21:26:35.820Z,31.27
2019-05-18T21:29:40.135Z,31.73
2019-05-18T21:32:46.250Z,31.87
2019-05-18T21:35:50.876Z,31.47
2019-05-18T21:38:56.480Z,30.07
2019-05-18T21:42:01.206Z,31.27
2019-05-18T21:45:07.140Z,30.40
2019-05-18T21:48:11.485Z,31.23
2019-05-18T21:51:16.040Z,29.87
2019-05-18T21:54:20.605Z,30.87
2019-05-18T21:57:24.900Z,31.53
2019-05-18T22:00:30.863Z,31.27
2019-05-18T22:03:35.437Z,31.40
2019-05-18T22:06:39.945Z,32.57
2019-05-18T22:09:44.456Z,31.17
2019-05-18T22:12:49.644Z,30.70
2019-05-18T22:15:54.248Z,31.63
2019-05-18T22:18:58.908Z,30.93
2019-05-18T22:22:03.266Z,30.07
2019-05-18T22:25:07.774Z,31.67
2019-05-18T22:28:13.831Z,32.37
2019-05-18T22:31:19.743Z,31.43
2019-05-18T22:34:25.791Z,30.60
2019-05-18T22:37:31.098Z,31.23
2019-05-18T22:40:38.712Z,31.77
2019-05-18T22:43:43.006Z,31.50
2019-05-18T22:46:48.742Z,32.03
2019-05-18T22:49:53.643Z,33.10
2019-05-18T22:52:57.955Z,31.73
2019-05-18T22:56:02.250Z,34.00
2019-05-18T22:59:06.657Z,33.00
2019-05-18T23:02:10.933Z,32.10
2019-05-18T23:05:15.422Z,32.20
2019-05-18T23:08:19.978Z,31.50
2019-05-18T23:11:24.268Z,33.83
2019-05-18T23:14:28.551Z,33.67
2019-05-18T23:17:32.834Z,32.20
2019-05-18T23:20:37.178Z,32.23
2019-05-18T23:23:41.493Z,34.13
2019-05-18T23:26:45.782Z,33.47
2019-05-18T23:29:50.181Z,33.10
2019-05-18T23:32:54.542Z,33.03
2019-05-18T23:35:58.861Z,32.97
2019-05-18T23:39:05.709Z,31.20
2019-05-18T23:42:10.050Z,34.07
2019-05-18T23:45:14.368Z,33.07
2019-05-18T23:48:18.694Z,32.10
2019-05-18T23:51:22.994Z,33.23
2019-05-18T23:54:27.311Z,33.13
2019-05-18T23:57:31.631Z,33.37
